Timmins Victor M. Power Airport

Airport
ICAO code: 
CYTS
Summary
ICAO Region: 
NAM
Territory: 
Location: 
Timmins, Ontario,
Coordinates: 
Aerial View: 
48° 34' 10.999" N, 81° 22' 36.001" W
Airport BS: 
Bird Strike
Airport CFIT: 
Altimeter Temperature Error Correction
Airport GND: 
Aircraft Ground De/Anti Icing
Airport RE: 
Landing on Contaminated Runways
Metar
Observation
CYTS 272100Z 24002KT 15SM -SN BKN009 M12/M14 A2990 RMK SC5 SLP156
Station
Timmins, Ont.
Date/Time
2021-11-27 21:00:00
Wind direction
240°
Wind speed
02 kts
Lowest cloud amount
broken clouds
Temperature
-12°C
Dew point
-14°C
Humidity
84%
Weather condition
light snow

Description

Regional airport located 6 miles northwest of Timmins, Ontario, Canada.

Climatology

Humid Continental climate (Köppen climate classification Dfb) - Variable weather patterns and a large seasonal temperature variance. Summers are often warm and humid with frequent thunderstorms and winters can be very cold with frequent snowfall and persistent snow cover.

Runways

Designator Length Width Surface Rops
10/28 1494 46 ASP Yes/Yes
3/21 1829 46 ASP Yes/Yes
Airport map: 
Aerial View: 

SKYbrary Partners:

Safety knowledge contributed by: